Thursday, May 24, 2018, 3:22 PM EDT
Back to Local

KGTB, Fort Drum / Wheeler-sack U. S. Army Airfield

Location: Fort Drum, NY, United States Lat: 44.05
Local Time: 3:22 PM EDT (19:22 GMT) Lon: -75.733
Time Zone: US/Eastern Elev: 679 ft

Show me the last for .
Show Decoded

2018-05-24 14:56 METAR KGTB 241856Z AUTO 26008KT 10SM CLR 23/04 A3011 RMK AO2 SLP197 T02310036 =
2018-05-24 13:56 METAR KGTB 241756Z AUTO 27009KT 10SM CLR 23/03 A3012 RMK AO2 SLP199 T02270027
                 10229 20138 58016 =
2018-05-24 12:56 METAR KGTB 241656Z AUTO 23009KT 10SM CLR 22/02 A3014 RMK AO2 SLP206 T02170019 =
2018-05-24 11:56 METAR KGTB 241556Z AUTO 30004KT 10SM CLR 21/01 A3016 RMK AO2 SLP214 T02100013 =
2018-05-24 10:56 METAR KGTB 241456Z AUTO 24003KT 10SM CLR 20/02 A3017 RMK AO2 SLP217 T01950019
                 58006 =
2018-05-24 09:56 METAR KGTB 241356Z AUTO 00000KT 10SM CLR 18/01 A3019 RMK AO2 SLP224 T01750006 =
2018-05-24 08:56 METAR KGTB 241256Z AUTO 00000KT 10SM CLR 16/03 A3019 RMK AO2 SLP224 T01620026 =
2018-05-24 07:56 METAR KGTB 241156Z AUTO 26004KT 10SM CLR 14/05 A3019 RMK AO2 SLP224 T01380054
                 10138 20058 52016 =
2018-05-24 06:56 METAR KGTB 241056Z AUTO 21003KT 10SM CLR 09/05 A3017 RMK AO2 SLP218 T00870054 =
2018-05-24 05:56 METAR KGTB 240956Z AUTO 19003KT 10SM CLR 08/05 A3016 RMK AO2 SLP214 T00750045 =
2018-05-24 04:56 METAR KGTB 240856Z AUTO 24005KT 10SM CLR 07/04 A3014 RMK AO2 SLP208 T00650040
                 52015 =
2018-05-24 03:56 METAR KGTB 240756Z AUTO 20004KT 10SM CLR 07/05 A3012 RMK AO2 SLP201 T00660049 =
2018-05-24 02:56 METAR KGTB 240656Z AUTO 00000KT 10SM CLR 09/05 A3010 RMK AO2 SLP193 T00900046 =
2018-05-24 01:56 METAR KGTB 240556Z AUTO 34003KT 10SM CLR 11/06 A3009 RMK AO2 SLP190 T01060060
                 10183 20095 52012 =
2018-05-24 00:56 METAR KGTB 240456Z AUTO 30004KT 10SM CLR 11/09 A3008 RMK AO2 SLP187 T01140090
                 402080095 =
2018-05-23 23:56 METAR KGTB 240356Z AUTO 00000KT 10SM CLR 11/10 A3007 RMK AO2 SLP184 T01070101 =
2018-05-23 22:56 METAR KGTB 240256Z AUTO 00000KT 10SM CLR 11/09 A3006 RMK AO2 SLP180 T01130094
                 52015 =
2018-05-23 21:56 METAR KGTB 240156Z AUTO 00000KT 10SM CLR 14/10 A3005 RMK AO2 SLP176 T01380100 =
2018-05-23 20:56 METAR KGTB 240056Z AUTO 24005KT 10SM CLR 15/10 A3003 RMK AO2 SLP170 T01500100 =
2018-05-23 19:56 METAR KGTB 232356Z AUTO 26003KT 10SM CLR 18/12 A3001 RMK AO2 SLP162 T01840115
                 10208 20183 50006 =
2018-05-23 18:56 METAR KGTB 232256Z AUTO 21007KT 10SM CLR 20/11 A3000 RMK AO2 SLP159 T01980113 =
2018-05-23 17:56 METAR KGTB 232156Z AUTO 22009KT 10SM CLR 20/12 A3000 RMK AO2 SLP159 T02030123 =
2018-05-23 16:56 METAR KGTB 232056Z AUTO 23012KT 10SM CLR 21/12 A2999 RMK AO2 SLP155 T02060123
                 55006 =
2018-05-23 15:56 METAR KGTB 231956Z AUTO 25010KT 9SM CLR 21/13 A2999 RMK AO2 SLP155 T02070126 =

Support USWX by starting your Amazon purchase here.